createdAt,value
2018-10-05T00:00:20.841Z,7.70
2018-10-05T00:02:49.052Z,7.70
2018-10-05T00:05:17.297Z,7.50
2018-10-05T00:07:45.485Z,7.50
2018-10-05T00:10:13.705Z,7.50
2018-10-05T00:12:41.918Z,7.50
2018-10-05T00:15:10.228Z,7.50
2018-10-05T00:17:38.388Z,7.40
2018-10-05T00:20:06.637Z,7.40
2018-10-05T00:22:34.867Z,7.40
2018-10-05T00:25:03.128Z,7.50
2018-10-05T00:27:31.331Z,7.50
2018-10-05T00:29:59.497Z,7.50
2018-10-05T00:32:27.772Z,7.60
2018-10-05T00:34:55.918Z,7.60
2018-10-05T00:37:24.104Z,7.70
2018-10-05T00:39:52.309Z,7.60
2018-10-05T00:42:20.520Z,7.60
2018-10-05T00:44:48.791Z,7.50
2018-10-05T00:47:16.964Z,7.60
2018-10-05T00:49:45.171Z,7.60
2018-10-05T00:52:13.421Z,7.50
2018-10-05T00:54:41.595Z,7.60
2018-10-05T00:57:09.804Z,7.60
2018-10-05T00:59:37.981Z,7.50
2018-10-05T01:02:06.492Z,7.50
2018-10-05T01:04:34.672Z,7.50
2018-10-05T01:07:02.940Z,7.50
2018-10-05T01:09:31.252Z,7.50
2018-10-05T01:11:59.417Z,7.50
2018-10-05T01:14:27.687Z,7.50
2018-10-05T01:16:55.966Z,7.50
2018-10-05T01:19:24.276Z,7.50
2018-10-05T01:21:52.526Z,7.50
2018-10-05T01:24:20.699Z,7.50
2018-10-05T01:26:48.940Z,7.30
2018-10-05T01:29:17.088Z,7.20
2018-10-05T01:31:45.329Z,7.20
2018-10-05T01:34:13.505Z,7.10
2018-10-05T01:36:41.700Z,7.10
2018-10-05T01:39:09.906Z,7.10
2018-10-05T01:41:38.072Z,7.10
2018-10-05T01:44:06.314Z,7.10
2018-10-05T01:46:34.585Z,6.90
2018-10-05T01:49:03.043Z,6.80
2018-10-05T01:51:35.962Z,6.90
2018-10-05T01:54:05.057Z,6.90
2018-10-05T01:56:33.957Z,6.90
2018-10-05T01:59:02.317Z,7.00
2018-10-05T02:01:31.412Z,7.00
2018-10-05T02:03:59.585Z,6.90
2018-10-05T02:06:27.875Z,7.00
2018-10-05T02:08:56.106Z,7.00
2018-10-05T02:11:24.290Z,7.10
2018-10-05T02:13:52.501Z,7.10
2018-10-05T02:16:20.674Z,7.10
2018-10-05T02:18:48.889Z,7.10
2018-10-05T02:21:17.069Z,7.10
2018-10-05T02:23:45.269Z,7.00
2018-10-05T02:26:13.544Z,6.90
2018-10-05T02:28:41.708Z,6.90
2018-10-05T02:31:09.928Z,6.90
2018-10-05T02:33:38.104Z,6.80
2018-10-05T02:36:06.745Z,6.80
2018-10-05T02:38:34.933Z,6.80
2018-10-05T02:41:03.524Z,6.80
2018-10-05T02:43:31.736Z,6.80
2018-10-05T02:45:59.971Z,6.80
2018-10-05T02:48:28.139Z,6.70
2018-10-05T02:50:56.432Z,6.60
2018-10-05T02:53:24.822Z,6.70
2018-10-05T02:55:53.022Z,6.70
2018-10-05T02:58:21.225Z,6.70
2018-10-05T03:01:00.395Z,6.70
2018-10-05T03:03:28.580Z,6.80
2018-10-05T03:05:56.764Z,6.80
2018-10-05T03:08:25.022Z,6.70
2018-10-05T03:10:53.184Z,6.80
2018-10-05T03:13:21.408Z,6.70
2018-10-05T03:15:49.720Z,6.70
2018-10-05T03:18:17.937Z,6.70
2018-10-05T03:20:46.174Z,6.60
2018-10-05T03:23:14.352Z,6.60
2018-10-05T03:25:42.602Z,6.60
2018-10-05T03:28:10.797Z,6.70
2018-10-05T03:30:38.996Z,6.70
2018-10-05T03:33:07.220Z,6.60
2018-10-05T03:35:35.425Z,6.40
2018-10-05T03:38:03.691Z,6.30
2018-10-05T03:40:31.854Z,6.20
2018-10-05T03:43:00.102Z,6.00
2018-10-05T03:45:29.251Z,6.10
2018-10-05T03:47:57.413Z,6.10
2018-10-05T03:50:25.624Z,6.10
2018-10-05T03:52:53.921Z,6.00
2018-10-05T03:55:22.135Z,5.90
2018-10-05T03:57:50.332Z,5.90
2018-10-05T04:00:18.852Z,5.90
2018-10-05T04:02:47.037Z,5.90
2018-10-05T04:05:15.241Z,5.90
2018-10-05T04:07:43.522Z,5.80
2018-10-05T04:10:11.726Z,5.80
2018-10-05T04:12:39.928Z,5.80
2018-10-05T04:15:08.137Z,5.90
2018-10-05T04:17:36.292Z,5.90
2018-10-05T04:20:04.516Z,6.00
2018-10-05T04:22:32.676Z,6.00
2018-10-05T04:25:00.874Z,6.00
2018-10-05T04:27:29.104Z,6.00
2018-10-05T04:29:57.310Z,5.90
2018-10-05T04:32:25.850Z,5.90
2018-10-05T04:34:54.028Z,6.00
2018-10-05T04:37:22.269Z,5.90
2018-10-05T04:39:50.503Z,5.90
2018-10-05T04:42:18.736Z,5.90
2018-10-05T04:44:47.619Z,5.90
2018-10-05T04:47:15.854Z,5.90
2018-10-05T04:49:44.158Z,5.80
2018-10-05T04:52:12.277Z,5.70
2018-10-05T04:54:40.482Z,5.50
2018-10-05T04:57:08.689Z,5.40
2018-10-05T04:59:38.050Z,5.30
2018-10-05T05:02:06.288Z,5.20
2018-10-05T05:04:34.455Z,5.20
2018-10-05T05:07:02.670Z,5.20
2018-10-05T05:09:30.845Z,5.20
2018-10-05T05:11:59.130Z,5.10
2018-10-05T05:14:27.347Z,5.20
2018-10-05T05:16:55.528Z,5.30
2018-10-05T05:19:23.726Z,5.30
2018-10-05T05:21:51.954Z,5.40
2018-10-05T05:24:26.946Z,5.40
2018-10-05T05:26:58.138Z,5.40
2018-10-05T05:29:26.365Z,5.50
2018-10-05T05:31:54.561Z,5.50
2018-10-05T05:34:22.781Z,5.60
2018-10-05T05:36:51.513Z,5.70
2018-10-05T05:39:19.721Z,5.60
2018-10-05T05:41:47.991Z,5.60
2018-10-05T05:44:16.232Z,5.50
2018-10-05T05:46:44.427Z,5.50
2018-10-05T05:49:12.617Z,5.40
2018-10-05T05:51:40.808Z,5.40
2018-10-05T05:54:09.197Z,5.40
2018-10-05T05:56:37.396Z,5.40
2018-10-05T05:59:05.588Z,5.40
2018-10-05T06:01:33.801Z,5.60
2018-10-05T06:04:02.010Z,5.70
2018-10-05T06:06:30.217Z,6.00
2018-10-05T06:08:58.428Z,6.30
2018-10-05T06:11:26.661Z,6.70
2018-10-05T06:13:54.924Z,7.00
2018-10-05T06:16:23.218Z,7.10
2018-10-05T06:18:51.366Z,7.50
2018-10-05T06:21:19.982Z,7.80
2018-10-05T06:23:48.217Z,7.90
2018-10-05T06:26:16.445Z,7.90
2018-10-05T06:28:44.783Z,8.30
2018-10-05T06:31:13.488Z,8.60
2018-10-05T06:33:41.961Z,8.80
2018-10-05T06:36:10.188Z,9.00
2018-10-05T06:38:38.787Z,9.20
2018-10-05T06:41:07.039Z,9.50
2018-10-05T06:43:35.240Z,9.80
2018-10-05T06:46:03.880Z,10.00
2018-10-05T06:48:32.742Z,10.10
2018-10-05T06:51:01.426Z,10.10
2018-10-05T06:53:30.243Z,10.00
2018-10-05T06:55:59.237Z,9.80
2018-10-05T06:58:27.978Z,9.90
2018-10-05T07:00:56.958Z,10.10
2018-10-05T07:03:25.651Z,10.50
2018-10-05T07:05:54.726Z,10.80
2018-10-05T07:08:22.927Z,11.00
2018-10-05T07:10:51.142Z,11.20
2018-10-05T07:13:19.349Z,11.50
2018-10-05T07:15:47.538Z,11.70
2018-10-05T07:18:15.773Z,11.90
2018-10-05T07:20:43.978Z,12.00
2018-10-05T07:23:12.211Z,12.10
2018-10-05T07:25:40.368Z,12.30
2018-10-05T07:28:08.642Z,12.40
2018-10-05T07:30:36.868Z,12.50
2018-10-05T07:33:05.080Z,12.40
2018-10-05T07:35:33.293Z,12.50
2018-10-05T07:38:01.453Z,12.80
2018-10-05T07:40:29.701Z,12.90
2018-10-05T07:42:57.912Z,12.80
2018-10-05T07:45:26.137Z,12.80
2018-10-05T07:47:54.885Z,12.90
2018-10-05T07:50:23.541Z,12.90
2018-10-05T07:52:52.544Z,13.10
2018-10-05T07:55:21.347Z,13.20
2018-10-05T07:57:50.049Z,12.70
2018-10-05T08:00:18.785Z,12.80
2018-10-05T08:02:46.957Z,13.10
2018-10-05T08:05:15.197Z,13.10
2018-10-05T08:07:43.391Z,13.10
2018-10-05T08:10:11.613Z,13.30
2018-10-05T08:12:39.814Z,13.50
2018-10-05T08:15:08.002Z,13.60
2018-10-05T08:17:36.217Z,13.80
2018-10-05T08:20:04.521Z,14.10
2018-10-05T08:22:33.881Z,14.20
2018-10-05T08:25:02.393Z,14.30
2018-10-05T08:27:30.658Z,14.20
2018-10-05T08:29:58.920Z,14.20
2018-10-05T08:32:27.106Z,14.50
2018-10-05T08:34:55.306Z,14.60
2018-10-05T08:37:23.590Z,14.50
2018-10-05T08:39:51.905Z,14.60
2018-10-05T08:42:20.058Z,14.80
2018-10-05T08:44:48.249Z,15.00
2018-10-05T08:47:16.518Z,15.10
2018-10-05T08:49:45.287Z,15.40
2018-10-05T08:52:13.535Z,15.60
2018-10-05T08:54:41.705Z,15.70
2018-10-05T08:57:09.917Z,15.80
2018-10-05T08:59:38.140Z,15.90
2018-10-05T09:02:06.329Z,15.60
2018-10-05T09:04:34.517Z,15.60
2018-10-05T09:07:02.832Z,15.80
2018-10-05T09:09:31.233Z,16.00
2018-10-05T09:11:59.496Z,16.00
2018-10-05T09:14:27.656Z,16.10
2018-10-05T09:16:55.917Z,16.30
2018-10-05T09:19:24.122Z,16.20
2018-10-05T09:21:52.274Z,16.20
2018-10-05T09:24:20.480Z,16.30
2018-10-05T09:26:48.645Z,16.30
2018-10-05T09:29:16.907Z,16.30
2018-10-05T09:31:45.129Z,16.30
2018-10-05T09:34:13.357Z,16.40
2018-10-05T09:36:41.569Z,16.40
2018-10-05T09:39:09.732Z,16.50
2018-10-05T09:41:37.985Z,16.60
2018-10-05T09:44:06.157Z,16.60
2018-10-05T09:46:34.426Z,16.70
2018-10-05T09:49:02.641Z,16.90
2018-10-05T09:51:30.878Z,17.10
2018-10-05T09:53:59.163Z,17.30
2018-10-05T09:56:27.335Z,17.20
2018-10-05T09:58:55.561Z,17.30
2018-10-05T10:01:29.119Z,17.40
2018-10-05T10:03:57.337Z,17.40
2018-10-05T10:06:25.549Z,17.50
2018-10-05T10:08:53.793Z,17.20
2018-10-05T10:11:22.012Z,17.20
2018-10-05T10:13:50.272Z,17.20
2018-10-05T10:16:18.494Z,17.30
2018-10-05T10:18:46.721Z,17.20
2018-10-05T10:21:14.889Z,17.30
2018-10-05T10:23:43.082Z,17.40
2018-10-05T10:26:11.273Z,17.60
2018-10-05T10:28:39.637Z,17.60
2018-10-05T10:31:07.826Z,17.80
2018-10-05T10:33:35.995Z,17.90
2018-10-05T10:36:04.274Z,17.90
2018-10-05T10:38:32.449Z,18.10
2018-10-05T10:41:00.685Z,18.10
2018-10-05T10:43:28.881Z,18.10
2018-10-05T10:45:57.117Z,18.10
2018-10-05T10:48:25.313Z,18.30
2018-10-05T10:50:53.537Z,18.50
2018-10-05T10:53:21.761Z,18.50
2018-10-05T10:55:49.978Z,18.50
2018-10-05T10:58:18.149Z,18.40
2018-10-05T11:00:46.450Z,18.40
2018-10-05T11:03:14.598Z,18.60
2018-10-05T11:05:42.853Z,18.80
2018-10-05T11:08:11.036Z,18.80
2018-10-05T11:10:39.332Z,19.10
2018-10-05T11:13:07.565Z,19.30
2018-10-05T11:15:35.748Z,19.30
2018-10-05T11:18:03.965Z,19.40
2018-10-05T11:20:32.140Z,19.60
2018-10-05T11:23:00.336Z,19.80
2018-10-05T11:25:28.521Z,19.90
2018-10-05T11:27:56.731Z,19.80
2018-10-05T11:30:24.960Z,19.90
2018-10-05T11:32:53.125Z,19.90
2018-10-05T11:35:21.312Z,19.70
2018-10-05T11:37:49.516Z,19.80
2018-10-05T11:40:17.728Z,19.80
2018-10-05T11:42:45.948Z,20.00
2018-10-05T11:45:14.116Z,20.20
2018-10-05T11:47:42.329Z,20.10
2018-10-05T11:50:10.498Z,20.20
2018-10-05T11:52:38.720Z,20.30
2018-10-05T11:55:06.907Z,20.30
2018-10-05T11:57:35.103Z,20.30
2018-10-05T12:00:03.414Z,20.70
2018-10-05T12:02:31.667Z,21.00
2018-10-05T12:04:59.901Z,20.90
2018-10-05T12:07:28.064Z,20.80
2018-10-05T12:09:56.260Z,20.90
2018-10-05T12:12:24.492Z,20.70
2018-10-05T12:14:52.700Z,20.40
2018-10-05T12:17:20.934Z,20.70
2018-10-05T12:19:49.194Z,20.80
2018-10-05T12:22:17.385Z,20.60
2018-10-05T12:24:45.582Z,20.70
2018-10-05T12:27:13.817Z,20.90
2018-10-05T12:29:42.058Z,21.20
2018-10-05T12:32:10.323Z,21.10
2018-10-05T12:34:38.513Z,21.20
2018-10-05T12:37:06.792Z,21.30
2018-10-05T12:39:34.989Z,21.10
2018-10-05T12:42:03.216Z,21.30
2018-10-05T12:44:31.428Z,21.50
2018-10-05T12:46:59.673Z,21.70
2018-10-05T12:49:27.878Z,21.70
2018-10-05T12:51:56.090Z,21.80
2018-10-05T12:54:24.786Z,22.00
2018-10-05T12:56:53.006Z,22.20
2018-10-05T12:59:21.309Z,21.90
2018-10-05T13:01:49.476Z,21.90
2018-10-05T13:04:17.679Z,22.00
2018-10-05T13:06:45.893Z,22.30
2018-10-05T13:09:14.136Z,21.90
2018-10-05T13:11:42.310Z,21.60
2018-10-05T13:14:10.558Z,21.60
2018-10-05T13:16:38.751Z,21.60
2018-10-05T13:19:06.974Z,21.90
2018-10-05T13:21:35.178Z,22.10
2018-10-05T13:24:04.234Z,22.20
2018-10-05T13:26:32.645Z,22.00
2018-10-05T13:29:00.872Z,21.90
2018-10-05T13:31:29.150Z,21.80
2018-10-05T13:33:57.364Z,21.70
2018-10-05T13:36:25.621Z,21.90
2018-10-05T13:38:54.060Z,21.90
2018-10-05T13:41:22.876Z,22.10
2018-10-05T13:43:51.086Z,22.20
2018-10-05T13:46:19.548Z,22.10
2018-10-05T13:48:47.773Z,22.20
2018-10-05T13:51:15.994Z,22.30
2018-10-05T13:53:44.197Z,22.30
2018-10-05T13:56:12.437Z,22.30
2018-10-05T13:58:40.622Z,22.00
2018-10-05T14:01:08.869Z,22.00
2018-10-05T14:03:37.085Z,22.00
2018-10-05T14:06:05.414Z,22.10
2018-10-05T14:08:33.621Z,22.10
2018-10-05T14:11:01.823Z,22.10
2018-10-05T14:13:30.134Z,22.10
2018-10-05T14:15:58.366Z,22.10
2018-10-05T14:18:26.561Z,22.00
2018-10-05T14:20:55.701Z,22.20
2018-10-05T14:23:23.926Z,22.20
2018-10-05T14:25:52.177Z,22.20
2018-10-05T14:28:20.378Z,22.00
2018-10-05T14:30:48.634Z,21.90
2018-10-05T14:33:16.929Z,21.70
2018-10-05T14:35:45.112Z,21.80
2018-10-05T14:38:13.334Z,21.70
2018-10-05T14:40:41.552Z,21.70
2018-10-05T14:43:09.757Z,21.70
2018-10-05T14:45:37.952Z,21.70
2018-10-05T14:48:06.165Z,21.50
2018-10-05T14:50:34.439Z,21.40
2018-10-05T14:53:02.661Z,21.40
2018-10-05T14:55:30.895Z,21.40
2018-10-05T14:57:59.090Z,21.40
2018-10-05T15:00:27.321Z,21.30
2018-10-05T15:02:55.512Z,21.20
2018-10-05T15:05:23.725Z,21.20
2018-10-05T15:07:51.948Z,21.20
2018-10-05T15:10:20.198Z,21.10
2018-10-05T15:12:48.449Z,20.80
2018-10-05T15:15:16.741Z,20.60
2018-10-05T15:17:45.026Z,20.50
2018-10-05T15:20:13.302Z,20.40
2018-10-05T15:22:41.531Z,20.20
2018-10-05T15:25:09.738Z,20.00
2018-10-05T15:27:37.909Z,19.90
2018-10-05T15:30:06.282Z,19.80
2018-10-05T15:32:34.530Z,19.80
2018-10-05T15:35:02.842Z,19.80
2018-10-05T15:37:31.086Z,19.90
2018-10-05T15:39:59.360Z,19.80
2018-10-05T15:42:27.555Z,19.70
2018-10-05T15:44:55.897Z,19.60
2018-10-05T15:47:24.121Z,19.40
2018-10-05T15:49:52.357Z,19.30
2018-10-05T15:52:20.605Z,19.30
2018-10-05T15:54:48.789Z,19.10
2018-10-05T15:57:16.997Z,19.00
2018-10-05T15:59:45.216Z,18.80
2018-10-05T16:02:13.408Z,18.70
2018-10-05T16:04:41.644Z,18.50
2018-10-05T16:07:09.922Z,18.20
2018-10-05T16:09:38.120Z,17.90
2018-10-05T16:12:06.479Z,17.80
2018-10-05T16:14:34.771Z,17.70
2018-10-05T16:17:03.024Z,17.60
2018-10-05T16:19:31.258Z,17.50
2018-10-05T16:21:59.498Z,17.30
2018-10-05T16:24:32.225Z,17.20
2018-10-05T16:27:00.544Z,17.00
2018-10-05T16:29:28.764Z,16.90
2018-10-05T16:31:56.963Z,16.80
2018-10-05T16:34:25.199Z,16.70
2018-10-05T16:36:54.077Z,16.60
2018-10-05T16:39:22.607Z,16.50
2018-10-05T16:41:50.931Z,16.40
2018-10-05T16:44:19.217Z,16.40
2018-10-05T16:46:47.614Z,16.30
2018-10-05T16:49:15.841Z,16.10
2018-10-05T16:51:44.024Z,15.90
2018-10-05T16:54:12.240Z,15.80
2018-10-05T16:56:40.476Z,15.70
2018-10-05T16:59:08.777Z,15.60
2018-10-05T17:01:37.804Z,15.50
2018-10-05T17:04:06.566Z,15.50
2018-10-05T17:06:34.781Z,15.40
2018-10-05T17:09:06.655Z,15.30
2018-10-05T17:11:36.241Z,15.20
2018-10-05T17:14:04.488Z,15.00
2018-10-05T17:16:32.706Z,15.00
2018-10-05T17:19:02.238Z,14.90
2018-10-05T17:21:33.287Z,14.90
2018-10-05T17:24:03.870Z,14.90
2018-10-05T17:26:32.765Z,14.90
2018-10-05T17:29:01.813Z,14.90
2018-10-05T17:31:30.401Z,14.80
2018-10-05T17:33:58.962Z,14.80
2018-10-05T17:36:28.099Z,14.80
2018-10-05T17:38:56.547Z,14.70
2018-10-05T17:41:24.977Z,14.70
2018-10-05T17:43:53.229Z,14.80
2018-10-05T17:46:21.557Z,14.70
2018-10-05T17:48:49.786Z,14.70
2018-10-05T17:51:18.086Z,14.70
2018-10-05T17:53:46.261Z,14.70
2018-10-05T17:56:14.860Z,14.70
2018-10-05T17:58:43.464Z,14.60
2018-10-05T18:01:11.817Z,14.50
2018-10-05T18:03:40.073Z,14.50
2018-10-05T18:06:08.353Z,14.40
2018-10-05T18:08:36.599Z,14.30
2018-10-05T18:11:04.873Z,14.20
2018-10-05T18:13:33.342Z,14.00
2018-10-05T18:16:01.737Z,13.80
2018-10-05T18:18:30.054Z,13.80
2018-10-05T18:20:58.566Z,13.80
2018-10-05T18:23:27.774Z,13.90
2018-10-05T18:25:56.857Z,13.90
2018-10-05T18:28:25.045Z,14.00
2018-10-05T18:30:53.621Z,13.90
2018-10-05T18:33:21.954Z,13.80
2018-10-05T18:35:50.920Z,13.80
2018-10-05T18:38:19.179Z,13.80
2018-10-05T18:40:47.438Z,13.70
2018-10-05T18:43:16.502Z,13.60
2018-10-05T18:45:44.821Z,13.60
2018-10-05T18:48:15.046Z,13.70
2018-10-05T18:50:44.318Z,13.60
2018-10-05T18:53:14.353Z,13.60
2018-10-05T18:55:42.914Z,13.50
2018-10-05T18:58:11.192Z,13.30
2018-10-05T19:00:39.605Z,13.30
2018-10-05T19:03:08.765Z,13.10
2018-10-05T19:05:37.274Z,13.10
2018-10-05T19:08:06.264Z,13.10
2018-10-05T19:10:34.539Z,13.10
2018-10-05T19:13:03.918Z,12.90
2018-10-05T19:15:34.261Z,12.80
2018-10-05T19:18:03.475Z,12.80
2018-10-05T19:20:33.492Z,12.80
2018-10-05T19:23:02.108Z,12.80
2018-10-05T19:25:34.474Z,12.70
2018-10-05T19:28:02.876Z,12.50
2018-10-05T19:30:31.808Z,12.50
2018-10-05T19:33:00.897Z,12.50
2018-10-05T19:35:30.029Z,12.40
2018-10-05T19:37:59.033Z,12.40
2018-10-05T19:40:28.181Z,12.40
2018-10-05T19:42:56.405Z,12.40
2018-10-05T19:45:24.636Z,12.50
2018-10-05T19:47:54.112Z,12.50
2018-10-05T19:50:22.345Z,12.50
2018-10-05T19:52:50.970Z,12.40
2018-10-05T19:55:19.240Z,12.30
2018-10-05T19:57:47.587Z,12.30
2018-10-05T20:00:16.116Z,12.20
2018-10-05T20:02:47.641Z,12.30
2018-10-05T20:05:16.023Z,12.30
2018-10-05T20:07:44.474Z,12.30
2018-10-05T20:10:12.687Z,12.20
2018-10-05T20:12:41.936Z,12.20
2018-10-05T20:15:10.179Z,12.10
2018-10-05T20:17:38.429Z,12.00
2018-10-05T20:20:06.772Z,12.10
2018-10-05T20:22:35.073Z,12.10
2018-10-05T20:25:07.280Z,12.00
2018-10-05T20:27:36.284Z,12.00
2018-10-05T20:30:05.141Z,12.00
2018-10-05T20:32:33.432Z,11.90
2018-10-05T20:35:01.638Z,11.80
2018-10-05T20:37:30.115Z,11.70
2018-10-05T20:39:58.245Z,11.70
2018-10-05T20:42:26.557Z,11.60
2018-10-05T20:44:55.357Z,11.60
2018-10-05T20:47:23.790Z,11.60
2018-10-05T20:49:52.061Z,11.60
2018-10-05T20:52:20.347Z,11.60
2018-10-05T20:54:48.604Z,11.60
2018-10-05T20:57:16.849Z,11.60
2018-10-05T20:59:45.053Z,11.50
2018-10-05T21:02:13.301Z,11.50
2018-10-05T21:04:41.525Z,11.20
2018-10-05T21:07:09.785Z,11.10
2018-10-05T21:09:38.016Z,11.20
2018-10-05T21:12:06.313Z,11.20
2018-10-05T21:14:34.509Z,11.20
2018-10-05T21:17:02.678Z,11.20
2018-10-05T21:19:30.885Z,11.20
2018-10-05T21:21:59.181Z,11.20
2018-10-05T21:24:30.254Z,11.20
2018-10-05T21:26:58.529Z,11.20
2018-10-05T21:29:26.712Z,11.20
2018-10-05T21:31:54.941Z,11.20
2018-10-05T21:34:23.162Z,11.20
2018-10-05T21:36:51.336Z,11.20
2018-10-05T21:39:19.549Z,11.20
2018-10-05T21:41:47.729Z,11.20
2018-10-05T21:44:15.912Z,11.20
2018-10-05T21:46:44.173Z,11.10
2018-10-05T21:49:12.866Z,11.10
2018-10-05T21:51:41.626Z,11.10
2018-10-05T21:54:10.272Z,11.10
2018-10-05T21:56:39.031Z,11.10
2018-10-05T21:59:07.853Z,11.00
2018-10-05T22:01:36.532Z,10.90
2018-10-05T22:04:05.307Z,10.70
2018-10-05T22:06:33.940Z,10.60
2018-10-05T22:09:02.871Z,10.60
2018-10-05T22:11:31.529Z,10.60
2018-10-05T22:14:00.220Z,10.50
2018-10-05T22:16:28.445Z,10.40
2018-10-05T22:18:56.648Z,10.30
2018-10-05T22:21:24.857Z,10.30
2018-10-05T22:23:53.150Z,10.30
2018-10-05T22:26:21.545Z,10.30
2018-10-05T22:28:49.717Z,10.40
2018-10-05T22:31:17.921Z,10.40
2018-10-05T22:33:46.106Z,10.50
2018-10-05T22:36:14.313Z,10.40
2018-10-05T22:38:42.619Z,10.50
2018-10-05T22:41:10.853Z,10.60
2018-10-05T22:43:39.030Z,10.60
2018-10-05T22:46:07.593Z,10.50
2018-10-05T22:48:35.780Z,10.50
2018-10-05T22:51:04.029Z,10.50
2018-10-05T22:53:32.288Z,10.50
2018-10-05T22:56:00.473Z,10.40
2018-10-05T22:58:28.733Z,10.40
2018-10-05T23:00:56.926Z,10.40
2018-10-05T23:03:25.166Z,10.40
2018-10-05T23:05:53.365Z,10.30
2018-10-05T23:08:21.558Z,10.30
2018-10-05T23:10:49.765Z,10.20
2018-10-05T23:13:17.997Z,10.10
2018-10-05T23:15:46.254Z,10.10
2018-10-05T23:18:14.498Z,10.10
2018-10-05T23:20:42.685Z,10.00
2018-10-05T23:23:10.889Z,10.00
2018-10-05T23:25:39.065Z,9.90
2018-10-05T23:28:07.341Z,9.90
2018-10-05T23:30:35.545Z,9.80
2018-10-05T23:33:03.774Z,9.90
2018-10-05T23:35:31.934Z,9.90
2018-10-05T23:38:00.125Z,9.90
2018-10-05T23:40:28.324Z,9.90
2018-10-05T23:42:56.533Z,9.90
2018-10-05T23:45:24.738Z,9.80
2018-10-05T23:47:52.978Z,9.70
2018-10-05T23:50:21.272Z,9.70
2018-10-05T23:52:50.550Z,9.70
2018-10-05T23:55:19.010Z,9.70
2018-10-05T23:57:47.675Z,9.70
